Decoded Metar for KAMW (AMES in IA, USA) (IATA:AMW) | Meteo·Mobile Aviation Weather
aviador You're here:

KAMW Decoded Metar

AMES in IA, USA
Report Time2018-09-21 09:22:00
UTC Time2018-09-21 09:30:25
Flight Rules mvfr MVFR
Wind290° at 13 Gusting to 23 kt
W.Decomp.*RWY 31: 12.0 kt HW 5.1 kt LCW
RWY 01: 1.6 kt HW 12.9 kt LCW
W.Rank290° ranks 14
Current wind is above 290° avg. (9.7)
Visibility9999 m
Phenomena:N/A
Clouds:Overcast 016 Hf
Expected CloudBase > 1,200 ft AGL from Temp-Dew spread
Ceiling1,600 ft
Temp16°C (ISA +3)
Dew Point13°C (83% RH)
AAT12.3°C
QNH1012 hPa
Density Alt1,486 ft
Elevation915 ft
Report Wrong Elevation
Raw Report
KAMW 210922Z AUTO 29013G23KT 10SM OVC016 16/13 A2989 RMK AO2
T01560133=

Extra information for KAMW:More info

Metar Taf Metar & Taf Last 4 Metars F.Rules Stats Wind Profile Meteogram Temp Stats Airport Information Weather charts Add Link Nearby VenuesMetar ALERT Operation Metar Decoded Social comments

AIRNAV info for KAMW